createdAt,value
2023-02-11T00:02:40.277Z,16.63
2023-02-11T00:05:24.294Z,18.20
2023-02-11T00:08:08.465Z,18.50
2023-02-11T00:10:55.185Z,19.23
2023-02-11T00:13:39.022Z,17.60
2023-02-11T00:16:23.035Z,18.63
2023-02-11T00:19:07.487Z,18.17
2023-02-11T00:21:51.241Z,16.90
2023-02-11T00:24:35.045Z,16.50
2023-02-11T00:27:20.564Z,15.97
2023-02-11T00:30:05.425Z,15.40
2023-02-11T00:32:49.295Z,16.73
2023-02-11T00:35:33.341Z,17.47
2023-02-11T00:38:17.369Z,18.00
2023-02-11T00:41:01.291Z,15.60
2023-02-11T00:43:47.111Z,15.93
2023-02-11T00:46:31.104Z,16.57
2023-02-11T00:49:15.425Z,15.73
2023-02-11T00:51:59.920Z,16.50
2023-02-11T00:54:44.002Z,16.40
2023-02-11T00:57:28.004Z,16.80
2023-02-11T01:00:15.698Z,15.87
2023-02-11T01:02:59.523Z,15.47
2023-02-11T01:05:43.240Z,15.70
2023-02-11T01:08:27.514Z,18.17
2023-02-11T01:11:15.610Z,15.60
2023-02-11T01:14:02.100Z,18.27
2023-02-11T01:16:47.248Z,15.23
2023-02-11T01:19:31.377Z,15.57
2023-02-11T01:22:15.245Z,15.87
2023-02-11T01:24:59.083Z,15.30
2023-02-11T01:27:42.960Z,17.53
2023-02-11T01:30:26.851Z,14.27
2023-02-11T01:33:12.209Z,14.53
2023-02-11T01:35:55.989Z,15.63
2023-02-11T01:38:41.320Z,15.93
2023-02-11T01:41:25.294Z,15.40
2023-02-11T01:44:27.330Z,14.70
2023-02-11T01:47:11.347Z,15.40
2023-02-11T01:50:00.495Z,15.93
2023-02-11T01:52:48.136Z,14.80
2023-02-11T01:55:50.628Z,15.33
2023-02-11T01:58:39.434Z,15.67
2023-02-11T02:01:26.905Z,14.13
2023-02-11T02:04:12.542Z,15.70
2023-02-11T02:07:03.774Z,14.37
2023-02-11T02:09:53.891Z,16.03
2023-02-11T02:12:37.669Z,14.70
2023-02-11T02:15:27.661Z,13.83
2023-02-11T02:18:31.843Z,16.60
2023-02-11T02:21:36.954Z,13.40
2023-02-11T02:24:39.878Z,13.97
2023-02-11T02:27:43.488Z,17.70
2023-02-11T02:30:58.052Z,21.63
2023-02-11T02:33:55.587Z,22.77
2023-02-11T02:36:49.406Z,16.93
2023-02-11T02:39:36.952Z,23.37
2023-02-11T02:42:22.600Z,15.60
2023-02-11T02:45:08.355Z,17.67
2023-02-11T02:47:53.849Z,16.73
2023-02-11T02:50:39.488Z,17.97
2023-02-11T02:53:33.335Z,15.47
2023-02-11T02:56:27.212Z,15.80
2023-02-11T02:59:36.381Z,22.37
2023-02-11T03:02:28.060Z,16.70
2023-02-11T03:05:18.999Z,18.53
2023-02-11T03:08:09.332Z,19.90
2023-02-11T03:10:55.674Z,19.03
2023-02-11T03:13:41.144Z,16.53
2023-02-11T03:16:29.436Z,21.37
2023-02-11T03:19:17.167Z,15.63
2023-02-11T03:22:03.843Z,15.97
2023-02-11T03:24:49.967Z,15.03
2023-02-11T03:27:40.827Z,16.17
2023-02-11T03:30:29.822Z,18.37
2023-02-11T03:33:19.031Z,15.33
2023-02-11T03:36:08.117Z,15.27
2023-02-11T03:38:57.541Z,15.97
2023-02-11T03:41:44.703Z,16.93
2023-02-11T03:44:32.753Z,16.67
2023-02-11T03:47:21.422Z,15.70
2023-02-11T03:50:07.609Z,14.80
2023-02-11T03:52:52.282Z,16.10
2023-02-11T03:55:41.093Z,13.97
2023-02-11T03:58:26.623Z,14.23
2023-02-11T04:01:10.967Z,16.53
2023-02-11T04:03:54.992Z,15.70
2023-02-11T04:06:39.000Z,13.00
2023-02-11T04:09:22.843Z,16.17
2023-02-11T04:12:06.911Z,23.43
2023-02-11T04:14:52.191Z,22.37
2023-02-11T04:17:36.074Z,13.40
2023-02-11T04:20:20.088Z,14.17
2023-02-11T04:23:04.030Z,14.43
2023-02-11T04:25:47.997Z,15.17
2023-02-11T04:28:32.245Z,14.47
2023-02-11T04:31:17.594Z,16.43
2023-02-11T04:34:01.585Z,14.93
2023-02-11T04:36:45.448Z,17.93
2023-02-11T04:39:29.270Z,17.53
2023-02-11T04:42:13.037Z,17.27
2023-02-11T04:44:56.927Z,18.40
2023-02-11T04:47:42.556Z,18.57
2023-02-11T04:50:26.560Z,20.70
2023-02-11T04:53:10.370Z,20.80
2023-02-11T04:55:54.183Z,19.20
2023-02-11T04:58:38.115Z,20.53
2023-02-11T05:01:21.907Z,23.53
2023-02-11T05:04:07.442Z,22.33
2023-02-11T05:06:51.508Z,20.43
2023-02-11T05:09:35.355Z,27.43
2023-02-11T05:12:19.175Z,23.30
2023-02-11T05:15:03.030Z,20.13
2023-02-11T05:17:48.388Z,19.13
2023-02-11T05:20:33.596Z,21.03
2023-02-11T05:23:17.374Z,23.33
2023-02-11T05:26:01.184Z,63.40
2023-02-11T05:28:46.249Z,43.53
2023-02-11T05:31:30.211Z,39.00
2023-02-11T05:34:14.081Z,29.50
2023-02-11T05:36:59.382Z,30.03
2023-02-11T05:39:43.263Z,24.17
2023-02-11T05:42:26.987Z,22.07
2023-02-11T05:45:11.214Z,23.87
2023-02-11T05:47:54.911Z,29.87
2023-02-11T05:50:38.897Z,27.80
2023-02-11T05:53:24.017Z,27.23
2023-02-11T05:56:08.390Z,28.00
2023-02-11T05:58:52.365Z,30.23
2023-02-11T06:01:36.259Z,32.83
2023-02-11T06:04:20.246Z,23.13
2023-02-11T06:07:04.710Z,30.17
2023-02-11T06:09:49.959Z,25.77
2023-02-11T06:12:33.863Z,31.17
2023-02-11T06:15:17.830Z,27.17
2023-02-11T06:18:01.724Z,28.13
2023-02-11T06:20:45.418Z,29.00
2023-02-11T06:23:30.550Z,26.87
2023-02-11T06:26:20.422Z,30.23
2023-02-11T06:29:04.339Z,33.87
2023-02-11T06:31:48.243Z,31.80
2023-02-11T06:34:32.160Z,39.10
2023-02-11T06:37:16.067Z,36.30
2023-02-11T06:39:59.793Z,36.17
2023-02-11T06:42:44.960Z,43.97
2023-02-11T06:45:28.695Z,37.73
2023-02-11T06:48:12.762Z,30.73
2023-02-11T06:50:56.571Z,24.37
2023-02-11T06:53:42.580Z,21.33
2023-02-11T06:56:27.542Z,19.30
2023-02-11T06:59:16.630Z,21.47
2023-02-11T07:02:00.563Z,22.40
2023-02-11T07:04:44.575Z,23.23
2023-02-11T07:07:30.050Z,22.40
2023-02-11T07:10:15.112Z,21.53
2023-02-11T07:12:58.974Z,20.50
2023-02-11T07:15:44.356Z,25.40
2023-02-11T07:18:28.305Z,21.43
2023-02-11T07:21:14.840Z,22.10
2023-02-11T07:23:59.001Z,20.13
2023-02-11T07:26:42.982Z,23.70
2023-02-11T07:29:26.980Z,21.50
2023-02-11T07:32:12.457Z,20.40
2023-02-11T07:34:56.705Z,23.40
2023-02-11T07:37:41.692Z,24.40
2023-02-11T07:40:25.746Z,23.33
2023-02-11T07:43:09.719Z,23.33
2023-02-11T07:45:53.774Z,23.03
2023-02-11T07:48:40.074Z,19.67
2023-02-11T07:51:26.777Z,22.87
2023-02-11T07:54:12.885Z,23.83
2023-02-11T07:56:56.939Z,23.60
2023-02-11T07:59:41.037Z,25.20
2023-02-11T08:02:25.076Z,22.93
2023-02-11T08:05:11.168Z,26.60
2023-02-11T08:07:56.121Z,34.10
2023-02-11T08:10:40.348Z,22.17
2023-02-11T08:13:24.543Z,24.03
2023-02-11T08:16:13.261Z,20.57
2023-02-11T08:18:59.253Z,15.93
2023-02-11T08:21:46.076Z,13.03
2023-02-11T08:24:30.062Z,11.43
2023-02-11T08:27:14.091Z,10.47
2023-02-11T08:30:00.085Z,11.07
2023-02-11T08:32:44.516Z,11.30
2023-02-11T08:35:28.977Z,13.43
2023-02-11T08:38:14.362Z,11.03
2023-02-11T08:41:01.062Z,11.10
2023-02-11T08:43:47.523Z,10.70
2023-02-11T08:46:32.031Z,11.03
2023-02-11T08:49:16.374Z,12.23
2023-02-11T08:52:04.030Z,11.63
2023-02-11T08:54:49.583Z,10.00
2023-02-11T08:57:33.584Z,13.13
2023-02-11T09:00:18.814Z,12.67
2023-02-11T09:03:02.718Z,12.40
2023-02-11T09:05:49.826Z,12.57
2023-02-11T09:08:36.341Z,10.50
2023-02-11T09:11:23.700Z,12.07
2023-02-11T09:14:07.786Z,18.97
2023-02-11T09:16:52.180Z,12.80
2023-02-11T09:19:36.032Z,14.13
2023-02-11T09:22:20.000Z,31.53
2023-02-11T09:25:03.935Z,15.80
2023-02-11T09:27:49.927Z,12.87
2023-02-11T09:30:33.935Z,12.83
2023-02-11T09:33:17.798Z,14.93
2023-02-11T09:36:02.493Z,12.97
2023-02-11T09:38:47.242Z,13.70
2023-02-11T09:42:18.568Z,12.43
2023-02-11T09:45:06.023Z,13.60
2023-02-11T09:47:55.370Z,12.50
2023-02-11T09:50:43.749Z,13.73
2023-02-11T09:53:29.623Z,12.90
2023-02-11T09:56:15.413Z,12.60
2023-02-11T09:58:59.476Z,14.20
2023-02-11T10:01:50.018Z,19.97
2023-02-11T10:04:49.247Z,13.80
2023-02-11T10:07:38.661Z,13.10
2023-02-11T10:10:40.292Z,13.17
2023-02-11T10:13:37.120Z,14.17
2023-02-11T10:16:32.509Z,14.73
2023-02-11T10:19:30.721Z,11.50
2023-02-11T10:22:21.217Z,14.70
2023-02-11T10:25:19.107Z,13.90
2023-02-11T10:28:11.934Z,12.87
2023-02-11T10:31:01.052Z,13.80
2023-02-11T10:33:48.854Z,14.73
2023-02-11T10:36:36.404Z,13.73
2023-02-11T10:39:21.877Z,14.90
2023-02-11T10:42:09.899Z,13.03
2023-02-11T10:45:00.580Z,12.10
2023-02-11T10:47:45.134Z,14.03
2023-02-11T10:50:30.709Z,15.17
2023-02-11T10:53:21.098Z,18.03
2023-02-11T10:56:07.502Z,13.67
2023-02-11T10:58:59.636Z,15.60
2023-02-11T11:01:46.784Z,20.70
2023-02-11T11:04:41.639Z,26.33
2023-02-11T11:07:28.402Z,15.73
2023-02-11T11:10:30.574Z,13.90
2023-02-11T11:13:30.389Z,18.60
2023-02-11T11:16:20.912Z,14.43
2023-02-11T11:19:23.474Z,13.33
2023-02-11T11:22:07.241Z,14.27
2023-02-11T11:24:54.490Z,14.57
2023-02-11T11:27:39.742Z,14.00
2023-02-11T11:30:26.989Z,13.03
2023-02-11T11:33:22.330Z,13.47
2023-02-11T11:36:08.971Z,12.80
2023-02-11T11:38:55.875Z,14.03
2023-02-11T11:41:51.245Z,14.30
2023-02-11T11:44:38.038Z,13.13
2023-02-11T11:47:28.209Z,13.57
2023-02-11T11:50:36.299Z,13.10
2023-02-11T11:53:24.709Z,12.43
2023-02-11T11:56:15.417Z,13.20
2023-02-11T11:59:03.745Z,13.93
2023-02-11T12:02:03.241Z,13.57
2023-02-11T12:05:02.626Z,12.50
2023-02-11T12:08:02.136Z,12.70
2023-02-11T12:10:58.839Z,12.73
2023-02-11T12:13:54.625Z,12.37
2023-02-11T12:16:52.093Z,12.60
2023-02-11T12:20:01.015Z,14.07
2023-02-11T12:22:54.733Z,11.70
2023-02-11T12:25:46.024Z,12.03
2023-02-11T12:28:41.510Z,10.73
2023-02-11T12:31:38.207Z,10.73
2023-02-11T12:34:47.049Z,11.60
2023-02-11T12:37:44.573Z,11.67
2023-02-11T12:40:35.172Z,11.13
2023-02-11T12:43:23.776Z,11.20
2023-02-11T12:46:36.200Z,10.50
2023-02-11T12:49:42.968Z,10.40
2023-02-11T12:52:51.657Z,9.43
2023-02-11T12:55:38.296Z,10.07
2023-02-11T12:58:35.536Z,8.70
2023-02-11T13:01:30.767Z,9.20
2023-02-11T13:04:22.300Z,9.30
2023-02-11T13:07:14.352Z,9.50
2023-02-11T13:10:07.707Z,9.20
2023-02-11T13:13:11.528Z,8.67
2023-02-11T13:16:02.366Z,8.83
2023-02-11T13:18:57.296Z,8.37
2023-02-11T13:22:10.744Z,9.00
2023-02-11T13:25:01.107Z,9.13
2023-02-11T13:27:58.411Z,8.20
2023-02-11T13:30:47.526Z,8.50
2023-02-11T13:33:39.651Z,11.20
2023-02-11T13:36:25.734Z,9.70
2023-02-11T13:39:21.910Z,10.40
2023-02-11T13:42:07.381Z,9.83
2023-02-11T13:44:51.675Z,11.30
2023-02-11T13:47:38.045Z,8.87
2023-02-11T13:50:25.258Z,9.63
2023-02-11T13:53:09.918Z,9.73
2023-02-11T13:56:06.244Z,9.50
2023-02-11T13:58:52.726Z,10.13
2023-02-11T14:02:20.693Z,9.73
2023-02-11T14:05:38.433Z,9.53
2023-02-11T14:08:42.043Z,10.03
2023-02-11T14:11:50.352Z,10.33
2023-02-11T14:14:36.187Z,9.03
2023-02-11T14:17:21.370Z,8.50
2023-02-11T14:20:26.449Z,11.73
2023-02-11T14:23:24.144Z,10.67
2023-02-11T14:26:31.176Z,10.43
2023-02-11T14:29:21.073Z,10.70
2023-02-11T14:32:14.358Z,9.80
2023-02-11T14:35:09.267Z,10.03
2023-02-11T14:38:03.118Z,10.00
2023-02-11T14:40:55.194Z,10.17
2023-02-11T14:43:42.493Z,10.50
2023-02-11T14:46:30.024Z,9.10
2023-02-11T14:49:25.447Z,9.97
2023-02-11T14:52:28.886Z,9.17
2023-02-11T14:55:25.382Z,9.03
2023-02-11T14:58:15.679Z,9.70
2023-02-11T15:01:01.483Z,8.87
2023-02-11T15:03:50.629Z,10.50
2023-02-11T15:06:39.285Z,10.40
2023-02-11T15:09:28.211Z,11.67
2023-02-11T15:12:20.403Z,9.60
2023-02-11T15:15:04.865Z,16.70
2023-02-11T15:17:49.619Z,10.77
2023-02-11T15:20:36.103Z,9.40
2023-02-11T15:23:25.696Z,9.73
2023-02-11T15:26:15.474Z,11.40
2023-02-11T15:28:59.870Z,9.97
2023-02-11T15:31:44.008Z,11.20
2023-02-11T15:34:28.408Z,10.70
2023-02-11T15:37:16.310Z,11.20
2023-02-11T15:40:12.396Z,18.13
2023-02-11T15:42:58.989Z,32.13
2023-02-11T15:45:45.408Z,44.03
2023-02-11T15:48:36.702Z,42.97
2023-02-11T15:51:23.239Z,35.03
2023-02-11T15:54:16.569Z,42.43
2023-02-11T15:57:08.686Z,23.57
2023-02-11T15:59:55.444Z,27.13
2023-02-11T16:02:45.275Z,28.30
2023-02-11T16:05:32.840Z,34.60
2023-02-11T16:08:24.573Z,30.83
2023-02-11T16:11:09.721Z,31.10
2023-02-11T16:13:55.118Z,29.47
2023-02-11T16:16:39.166Z,30.40
2023-02-11T16:19:25.718Z,17.10
2023-02-11T16:22:12.157Z,15.40
2023-02-11T16:24:59.606Z,15.07
2023-02-11T16:27:44.332Z,16.00
2023-02-11T16:30:37.629Z,13.37
2023-02-11T16:33:21.859Z,14.00
2023-02-11T16:36:13.620Z,16.53
2023-02-11T16:38:57.499Z,14.33
2023-02-11T16:41:41.842Z,13.43
2023-02-11T16:44:25.935Z,17.07
2023-02-11T16:47:20.679Z,14.73
2023-02-11T16:50:04.592Z,13.63
2023-02-11T16:52:48.457Z,15.17
2023-02-11T16:55:32.590Z,14.73
2023-02-11T16:58:16.988Z,12.03
2023-02-11T17:01:01.057Z,17.13
2023-02-11T17:03:46.494Z,19.37
2023-02-11T17:06:30.488Z,20.67
2023-02-11T17:09:19.142Z,27.00
2023-02-11T17:12:03.182Z,16.50
2023-02-11T17:14:47.163Z,14.47
2023-02-11T17:17:30.998Z,14.47
2023-02-11T17:20:17.463Z,24.57
2023-02-11T17:23:01.267Z,12.93
2023-02-11T17:25:45.225Z,14.57
2023-02-11T17:28:29.112Z,21.47
2023-02-11T17:31:13.097Z,19.90
2023-02-11T17:33:57.390Z,13.53
2023-02-11T17:36:42.595Z,12.00
2023-02-11T17:39:26.493Z,12.37
2023-02-11T17:42:11.742Z,11.80
2023-02-11T17:44:55.688Z,14.13
2023-02-11T17:47:39.730Z,15.53
2023-02-11T17:50:23.801Z,13.00
2023-02-11T17:53:09.230Z,12.97
2023-02-11T17:55:53.363Z,11.87
2023-02-11T17:58:37.420Z,12.17
2023-02-11T18:01:21.629Z,12.93
2023-02-11T18:04:06.606Z,11.87
2023-02-11T18:06:53.630Z,16.60
2023-02-11T18:09:42.846Z,21.50
2023-02-11T18:12:26.847Z,18.70
2023-02-11T18:15:11.450Z,19.77
2023-02-11T18:17:56.284Z,19.20
2023-02-11T18:20:42.893Z,19.07
2023-02-11T18:23:27.105Z,20.37
2023-02-11T18:26:14.630Z,20.53
2023-02-11T18:29:00.717Z,25.07
2023-02-11T18:31:44.776Z,18.27
2023-02-11T18:34:28.879Z,16.77
2023-02-11T18:37:14.154Z,16.50
2023-02-11T18:39:58.196Z,17.67
2023-02-11T18:42:44.126Z,19.70
2023-02-11T18:45:29.274Z,20.33
2023-02-11T18:48:13.859Z,28.50
2023-02-11T18:50:57.923Z,23.27
2023-02-11T18:53:42.314Z,21.20
2023-02-11T18:56:27.908Z,21.43
2023-02-11T18:59:13.810Z,19.57
2023-02-11T19:01:58.142Z,27.87
2023-02-11T19:04:42.185Z,14.47
2023-02-11T19:07:26.399Z,14.77
2023-02-11T19:10:10.652Z,23.90
2023-02-11T19:12:56.411Z,28.40
2023-02-11T19:15:44.585Z,31.47
2023-02-11T19:18:28.608Z,28.77
2023-02-11T19:21:14.110Z,30.83
2023-02-11T19:23:58.512Z,27.57
2023-02-11T19:26:43.526Z,28.10
2023-02-11T19:29:28.234Z,35.67
2023-02-11T19:32:13.573Z,27.37
2023-02-11T19:34:57.638Z,31.17
2023-02-11T19:37:41.646Z,19.33
2023-02-11T19:40:25.707Z,16.73
2023-02-11T19:43:09.742Z,38.20
2023-02-11T19:45:56.402Z,35.33
2023-02-11T19:48:42.028Z,30.00
2023-02-11T19:51:26.193Z,20.03
2023-02-11T19:54:10.227Z,18.80
2023-02-11T19:56:54.440Z,32.73
2023-02-11T19:59:38.394Z,25.07
2023-02-11T20:02:22.643Z,13.83
2023-02-11T20:05:08.670Z,14.63
2023-02-11T20:07:52.811Z,11.63
2023-02-11T20:10:36.810Z,17.50
2023-02-11T20:13:20.857Z,13.57
2023-02-11T20:16:09.023Z,17.00
2023-02-11T20:18:53.716Z,18.17
2023-02-11T20:21:39.698Z,20.60
2023-02-11T20:24:24.520Z,24.73
2023-02-11T20:27:10.563Z,16.57
2023-02-11T20:29:54.617Z,15.07
2023-02-11T20:32:39.119Z,14.83
2023-02-11T20:35:23.098Z,16.07
2023-02-11T20:38:08.688Z,16.33
2023-02-11T20:40:53.140Z,17.80
2023-02-11T20:43:38.027Z,16.20
2023-02-11T20:46:24.341Z,20.23
2023-02-11T20:49:08.874Z,23.00
2023-02-11T20:51:54.084Z,17.17
2023-02-11T20:54:39.874Z,15.47
2023-02-11T20:57:23.912Z,19.40
2023-02-11T21:00:09.822Z,24.30
2023-02-11T21:02:54.121Z,20.10
2023-02-11T21:05:38.122Z,18.40
2023-02-11T21:08:22.234Z,18.67
2023-02-11T21:11:09.011Z,17.80
2023-02-11T21:13:53.293Z,19.53
2023-02-11T21:16:37.423Z,20.40
2023-02-11T21:19:22.012Z,23.53
2023-02-11T21:22:06.087Z,20.10
2023-02-11T21:24:50.335Z,26.93
2023-02-11T21:27:35.812Z,22.17
2023-02-11T21:30:19.958Z,21.00
2023-02-11T21:33:03.882Z,20.90
2023-02-11T21:35:47.959Z,14.93
2023-02-11T21:38:32.915Z,18.73
2023-02-11T21:41:17.075Z,18.00
2023-02-11T21:44:02.509Z,22.03
2023-02-11T21:46:47.114Z,14.57
2023-02-11T21:49:31.034Z,14.70
2023-02-11T21:52:14.969Z,15.17
2023-02-11T21:54:59.081Z,15.17
2023-02-11T21:57:43.089Z,13.80
2023-02-11T22:00:29.105Z,15.30
2023-02-11T22:03:14.116Z,17.57
2023-02-11T22:05:58.060Z,13.20
2023-02-11T22:08:42.751Z,15.30
2023-02-11T22:11:26.582Z,11.47
2023-02-11T22:14:10.407Z,12.80
2023-02-11T22:16:55.623Z,13.50
2023-02-11T22:19:39.518Z,13.53
2023-02-11T22:22:23.281Z,12.60
2023-02-11T22:25:07.794Z,14.93
2023-02-11T22:27:51.491Z,13.47
2023-02-11T22:30:35.340Z,15.57
2023-02-11T22:33:20.583Z,20.63
2023-02-11T22:36:07.638Z,36.73
2023-02-11T22:38:52.092Z,14.83
2023-02-11T22:41:38.288Z,13.70
2023-02-11T22:44:22.085Z,12.77
2023-02-11T22:47:06.003Z,12.10
2023-02-11T22:49:51.154Z,16.13
2023-02-11T22:52:36.531Z,17.60
2023-02-11T22:55:20.375Z,12.43
2023-02-11T22:58:04.333Z,16.60
2023-02-11T23:00:48.038Z,14.37
2023-02-11T23:03:32.639Z,13.27
2023-02-11T23:06:18.597Z,14.10
2023-02-11T23:09:04.191Z,12.37
2023-02-11T23:11:49.443Z,15.43
2023-02-11T23:14:33.208Z,16.17
2023-02-11T23:17:16.932Z,14.47
2023-02-11T23:20:00.686Z,13.63
2023-02-11T23:22:45.830Z,13.17
2023-02-11T23:25:29.802Z,10.50
2023-02-11T23:28:13.976Z,12.37
2023-02-11T23:30:57.906Z,11.70
2023-02-11T23:33:41.753Z,14.67
2023-02-11T23:36:25.688Z,11.47
2023-02-11T23:39:14.508Z,9.70
2023-02-11T23:41:59.627Z,10.27
2023-02-11T23:44:43.622Z,10.00
2023-02-11T23:47:27.408Z,10.70
2023-02-11T23:50:12.582Z,10.63
2023-02-11T23:52:56.416Z,11.90
2023-02-11T23:55:42.859Z,9.60
2023-02-11T23:58:26.695Z,9.67
